Time;durP1;ratioP1;P1;durP2;ratioP2;P2;SDS_P1;SDS_P2;PMS_P1;PMS_P2;Temp;Humidity;BMP_temperature;BMP_pressure;BME280_temperature;BME280_humidity;BME280_pressure;Samples;Min_cycle;Max_cycle;Signal;HPM_P1;HPM_P2
2022/09/19 00:16:03;;;;;;;21.55;2.55;;;11.70;99.90;;;;;;4818948;29;20058;-87
2022/09/19 00:22:00;;;;;;;30.48;3.40;;;11.60;99.90;;;;;;4819496;29;20058;-87
2022/09/19 00:25:05;;;;;;;31.45;2.67;;;11.50;99.90;;;;;;4802523;29;20072;-86
2022/09/19 00:28:21;;;;;;;28.10;3.03;;;11.70;99.90;;;;;;4832983;29;20042;-87
2022/09/19 00:31:09;;;;;;;29.10;3.78;;;11.60;99.90;;;;;;4793191;29;20074;-87
2022/09/19 00:37:41;;;;;;;23.48;3.22;;;11.70;99.90;;;;;;4868322;24;20539;-87
2022/09/19 00:41:23;;;;;;;;;;;;;;;;;;;;;
2022/09/19 00:48:25;;;;;;;20.45;2.85;;;11.60;99.90;;;;;;4829256;29;20536;-86
2022/09/19 00:51:04;;;;;;;25.50;3.08;;;11.70;99.90;;;;;;4818810;29;20118;-87
2022/09/19 00:57:59;;;;;;;28.42;4.45;;;11.80;99.90;;;;;;4813948;29;20061;-87
2022/09/19 01:01:01;;;;;;;30.27;3.55;;;11.90;99.90;;;;;;4818147;29;20097;-87
2022/09/19 01:03:33;;;;;;;19.17;2.85;;;11.70;99.90;;;;;;4818469;29;20065;-86
2022/09/19 01:06:39;;;;;;;30.73;4.15;;;11.80;99.90;;;;;;4818043;29;20058;-89
2022/09/19 01:13:12;;;;;;;20.83;2.95;;;11.90;99.90;;;;;;4828420;29;20146;-87
2022/09/19 01:15:53;;;;;;;25.35;3.10;;;11.90;99.90;;;;;;4785822;29;20149;-87
2022/09/19 01:19:02;;;;;;;25.92;3.20;;;11.90;99.90;;;;;;4785818;29;20634;-88
2022/09/19 01:22:00;;;;;;;27.48;3.22;;;11.70;99.90;;;;;;4791195;29;20158;-87
2022/09/19 01:24:51;;;;;;;32.60;3.00;;;12.00;99.90;;;;;;4830355;29;20345;-87
2022/09/19 01:28:13;;;;;;;22.98;2.97;;;12.00;99.90;;;;;;4815352;29;20727;-88
2022/09/19 01:31:21;;;;;;;23.38;3.30;;;12.00;99.90;;;;;;4794787;29;20054;-86
2022/09/19 01:34:14;;;;;;;22.38;2.88;;;12.00;99.90;;;;;;4829521;29;20142;-88
2022/09/19 01:37:27;;;;;;;30.88;3.45;;;12.00;99.90;;;;;;4784888;29;20496;-86
2022/09/19 01:39:56;;;;;;;29.08;3.60;;;12.00;99.90;;;;;;4814173;29;20086;-86
2022/09/19 01:42:22;;;;;;;21.52;2.97;;;12.00;99.90;;;;;;4784526;29;20552;-87
2022/09/19 01:45:10;;;;;;;28.83;3.28;;;11.90;99.90;;;;;;4830654;29;20059;-87
2022/09/19 01:48:19;;;;;;;19.45;2.70;;;12.00;99.90;;;;;;4792573;29;20055;-87
2022/09/19 01:51:10;;;;;;;20.50;2.95;;;12.00;99.90;;;;;;4800313;29;20504;-87
2022/09/19 01:54:07;;;;;;;17.58;2.10;;;11.90;99.90;;;;;;4798769;29;20492;-86
2022/09/19 01:57:05;;;;;;;19.67;2.40;;;11.90;99.90;;;;;;4800802;29;20059;-87
2022/09/19 02:00:18;;;;;;;21.90;2.75;;;12.00;99.90;;;;;;4801645;29;20203;-87
2022/09/19 02:03:27;;;;;;;19.10;2.35;;;12.00;99.90;;;;;;4802385;29;20055;-87
2022/09/19 02:10:10;;;;;;;;;;;;;;;;;;;;;
2022/09/19 02:13:51;;;;;;;22.30;2.33;;;12.20;99.90;;;;;;4793263;29;20146;-88
2022/09/19 02:16:49;;;;;;;;;;;;;;;;;;;;;
2022/09/19 02:19:46;;;;;;;23.45;2.92;;;12.20;99.90;;;;;;4814199;29;20055;-86
2022/09/19 02:23:29;;;;;;;18.17;2.30;;;11.90;99.90;;;;;;4806023;29;20413;-88
2022/09/19 02:33:01;;;;;;;;;;;;;;;;;;;;;
2022/09/19 02:36:18;;;;;;;19.70;2.40;;;11.90;99.90;;;;;;4819400;29;20407;-86
2022/09/19 02:43:10;;;;;;;15.10;2.70;;;11.90;99.90;;;;;;4820016;29;20062;-87
2022/09/19 02:50:21;;;;;;;;;;;;;;;;;;;;;
2022/09/19 02:52:57;;;;;;;15.60;1.63;;;11.60;99.90;;;;;;4822018;29;20564;-87
2022/09/19 02:59:58;;;;;;;;;;;;;;;;;;;;;
2022/09/19 03:03:01;;;;;;;;;;;;;;;;;;;;;
2022/09/19 03:32:10;;;;;;;;;;;;;;;;;;;;;
2022/09/19 03:35:17;;;;;;;27.35;2.95;;;11.70;99.90;;;;;;4767783;30;20564;-87
2022/09/19 03:38:11;;;;;;;28.35;3.55;;;11.70;99.90;;;;;;4767313;30;20142;-86
2022/09/19 03:40:37;;;;;;;22.75;2.97;;;11.90;99.90;;;;;;4767646;30;20059;-87
2022/09/19 03:43:43;;;;;;;22.98;3.03;;;11.90;99.90;;;;;;4783727;29;20527;-87
2022/09/19 03:46:30;;;;;;;23.45;2.83;;;11.90;99.90;;;;;;4787886;29;20066;-87
2022/09/19 03:49:41;;;;;;;27.38;2.88;;;12.00;99.90;;;;;;4801525;29;20053;-88
2022/09/19 03:52:07;;;;;;;29.17;3.30;;;11.80;99.90;;;;;;4801168;29;20106;-86
2022/09/19 03:55:09;;;;;;;20.95;2.25;;;11.90;99.90;;;;;;4815508;29;20063;-87
2022/09/19 04:01:55;;;;;;;27.48;3.25;;;12.00;99.90;;;;;;4799550;29;20668;-87
2022/09/19 04:04:55;;;;;;;28.52;2.85;;;12.00;99.90;;;;;;4795622;29;20107;-87
2022/09/19 04:07:44;;;;;;;29.60;3.55;;;12.10;99.90;;;;;;4802156;29;20483;-87
2022/09/19 04:10:27;;;;;;;28.88;3.45;;;11.90;99.90;;;;;;4812494;29;20070;-86
2022/09/19 04:12:58;;;;;;;34.13;4.90;;;11.60;99.90;;;;;;4801939;29;20062;-87
2022/09/19 04:15:30;;;;;;;25.98;3.15;;;11.50;99.90;;;;;;4800194;29;20050;-86
2022/09/19 04:17:58;;;;;;;32.45;4.32;;;11.90;99.90;;;;;;4806943;29;20061;-87
2022/09/19 04:35:30;;;;;;;;;;;;;;;;;;;;;
2022/09/19 04:38:41;;;;;;;;;;;;;;;;;;;;;
2022/09/19 04:41:28;;;;;;;18.55;2.42;;;11.80;99.90;;;;;;4814821;29;20556;-86
2022/09/19 04:52:12;;;;;;;21.45;2.80;;;11.80;99.90;;;;;;4818237;29;20137;-88
2022/09/19 04:55:30;;;;;;;25.58;2.60;;;11.60;99.90;;;;;;4844522;24;20050;-87
2022/09/19 04:58:33;;;;;;;19.85;3.30;;;11.60;99.90;;;;;;4800772;29;20066;-87
2022/09/19 05:01:28;;;;;;;;;;;;;;;;;;;;;
2022/09/19 05:04:32;;;;;;;24.27;3.65;;;12.10;99.90;;;;;;4783973;29;20058;-87
2022/09/19 05:11:29;;;;;;;29.95;3.72;;;11.70;99.90;;;;;;4763052;30;20094;-87
2022/09/19 05:17:57;;;;;;;26.58;3.70;;;11.70;99.90;;;;;;4736609;30;20060;-87
2022/09/19 05:21:20;;;;;;;25.95;3.67;;;11.80;99.90;;;;;;4733846;30;20052;-88
2022/09/19 05:27:19;;;;;;;20.25;3.17;;;12.00;99.90;;;;;;4741583;30;20058;-88
2022/09/19 05:30:14;;;;;;;;;;;;;;;;;;;;;
2022/09/19 05:33:11;;;;;;;31.90;4.10;;;12.00;99.90;;;;;;4797479;29;20067;-88
2022/09/19 05:36:17;;;;;;;27.77;3.83;;;12.10;99.90;;;;;;4801137;29;20493;-88
2022/09/19 05:39:03;;;;;;;28.30;5.32;;;12.00;99.90;;;;;;4769011;30;20059;-88
2022/09/19 05:41:51;;;;;;;;;;;;;;;;;;;;;
2022/09/19 05:44:54;;;;;;;25.15;5.60;;;12.00;99.90;;;;;;4787616;30;20571;-87
2022/09/19 05:48:32;;;;;;;25.10;3.80;;;12.20;99.90;;;;;;4785424;30;20393;-88
2022/09/19 05:51:24;;;;;;;25.77;5.75;;;11.90;99.90;;;;;;4759808;30;20055;-88
2022/09/19 05:54:28;;;;;;;20.73;2.42;;;12.10;99.90;;;;;;4787294;24;20503;-88
2022/09/19 05:57:18;;;;;;;;;;;;;;;;;;;;;
2022/09/19 06:00:45;;;;;;;25.15;3.25;;;12.10;99.90;;;;;;4804388;29;20503;-88
2022/09/19 06:06:59;;;;;;;23.38;3.00;;;12.30;99.90;;;;;;4805009;29;20134;-88
2022/09/19 06:12:39;;;;;;;30.88;3.50;;;12.10;99.90;;;;;;4801920;29;20062;-87
2022/09/19 06:19:40;;;;;;;19.35;3.25;;;11.70;99.90;;;;;;4789761;29;20497;-87
2022/09/19 06:22:49;;;;;;;28.58;3.78;;;12.10;99.90;;;;;;4816097;29;20099;-88
2022/09/19 06:25:44;;;;;;;25.38;2.80;;;12.20;99.90;;;;;;4815258;29;20133;-86
2022/09/19 06:28:15;;;;;;;25.08;3.00;;;12.30;99.90;;;;;;4802927;29;20572;-88
2022/09/19 06:31:03;;;;;;;23.60;3.03;;;12.40;99.90;;;;;;4802965;29;20453;-87
2022/09/19 06:33:57;;;;;;;13.30;2.03;;;12.40;99.90;;;;;;4794621;29;20504;-88
2022/09/19 06:36:51;;;;;;;18.35;2.78;;;12.40;99.90;;;;;;4782427;29;20625;-88
2022/09/19 06:39:28;;;;;;;22.33;3.22;;;12.60;99.90;;;;;;4785664;29;20496;-91
2022/09/19 06:49:40;;;;;;;20.42;3.00;;;12.50;99.90;;;;;;2940263;24;20055;-87
2022/09/19 06:52:13;;;;;;;23.17;3.33;;;12.50;99.90;;;;;;4752868;30;20066;-87
2022/09/19 06:54:44;;;;;;;24.05;3.13;;;12.60;99.90;;;;;;4766805;30;20059;-87
2022/09/19 06:57:21;;;;;;;23.83;2.90;;;12.60;99.90;;;;;;4786788;24;20058;-87
2022/09/19 07:02:45;;;;;;;22.42;2.90;;;12.40;99.90;;;;;;4763417;30;20059;-87
2022/09/19 07:05:12;;;;;;;31.13;3.47;;;12.80;99.90;;;;;;4781686;29;20062;-88
2022/09/19 07:07:48;;;;;;;26.58;2.85;;;12.90;99.90;;;;;;4785659;29;20264;-88
2022/09/19 07:10:26;;;;;;;23.42;2.95;;;12.90;99.90;;;;;;4783517;29;20054;-88
2022/09/19 07:13:19;;;;;;;20.83;3.10;;;13.00;99.90;;;;;;4800656;29;20436;-87
2022/09/19 07:15:50;;;;;;;26.52;3.72;;;12.90;99.90;;;;;;4784906;29;20140;-88
2022/09/19 07:18:35;;;;;;;26.02;3.83;;;13.00;99.90;;;;;;4784395;29;20047;-87
2022/09/19 07:21:21;;;;;;;28.35;3.97;;;13.00;99.90;;;;;;4784228;29;20051;-87
2022/09/19 07:23:47;;;;;;;19.70;3.10;;;13.00;99.90;;;;;;4771124;30;20066;-86
2022/09/19 07:26:26;;;;;;;;;;;;;;;;;;;;;
2022/09/19 07:29:30;;;;;;;17.13;2.80;;;12.80;99.90;;;;;;4781090;30;20425;-87
2022/09/19 07:32:30;;;;;;;30.67;3.80;;;13.10;99.90;;;;;;4779164;30;20453;-87
2022/09/19 07:45:32;;;;;;;19.52;2.45;;;13.10;99.90;;;;;;4751808;29;20052;-87
2022/09/19 07:48:06;;;;;;;;;;;13.20;99.90;;;;;;4770242;30;20658;-88
2022/09/19 07:51:19;;;;;;;19.52;2.85;;;13.30;99.90;;;;;;4757192;30;20008;-87
2022/09/19 07:54:14;;;;;;;21.95;3.97;;;13.40;99.90;;;;;;4712451;30;20078;-86
2022/09/19 07:57:06;;;;;;;20.80;3.17;;;13.00;99.90;;;;;;4716410;30;20063;-87
2022/09/19 07:59:33;;;;;;;27.67;3.38;;;13.50;99.90;;;;;;4774210;29;20063;-88
2022/09/19 08:02:01;;;;;;;18.25;2.80;;;13.50;99.90;;;;;;4760372;29;20034;-88
2022/09/19 08:05:25;;;;;;;24.67;3.17;;;13.50;99.90;;;;;;4759256;29;20078;-88
2022/09/19 08:07:51;;;;;;;;;;;13.50;99.90;;;;;;4769446;29;20056;-87
2022/09/19 08:10:30;;;;;;;23.25;3.33;;;13.50;99.90;;;;;;4780369;29;19926;-87
2022/09/19 08:13:29;;;;;;;;;;;;;;;;;;;;;
2022/09/19 08:16:24;;;;;;;;;;;;;;;;;;;;;
2022/09/19 08:26:41;;;;;;;30.38;3.75;;;14.00;99.90;;;;;;4786231;29;20062;-86
2022/09/19 08:30:31;;;;;;;;;;;;;;;;;;;;;
2022/09/19 08:33:57;;;;;;;21.73;3.03;;;14.30;99.90;;;;;;4759066;29;20063;-88
2022/09/19 08:37:02;;;;;;;26.05;3.22;;;14.40;99.90;;;;;;4756584;29;20159;-86
2022/09/19 08:40:15;;;;;;;19.88;3.17;;;14.70;99.90;;;;;;4797588;29;20119;-87
2022/09/19 08:46:15;;;;;;;;;;;14.80;99.90;;;;;;4791767;29;20066;-87
2022/09/19 08:49:28;;;;;;;;;;;;;;;;;;;;;
2022/09/19 08:55:33;;;;;;;20.38;2.45;;;14.60;99.90;;;;;;4791480;29;20129;-87
2022/09/19 09:01:15;;;;;;;18.15;2.50;;;14.90;99.90;;;;;;4805557;24;20567;-87
2022/09/19 09:04:44;;;;;;;19.95;2.35;;;15.10;99.90;;;;;;4782695;29;20171;-87
2022/09/19 09:16:43;;;;;;;;;;;;;;;;;;;;;
2022/09/19 09:20:11;;;;;;;15.07;2.65;;;15.60;99.90;;;;;;4781602;29;20082;-86
2022/09/19 09:23:05;;;;;;;;;;;;;;;;;;;;;
2022/09/19 09:26:31;;;;;;;19.80;2.35;;;15.60;99.90;;;;;;4783689;29;20053;-88
2022/09/19 09:29:33;;;;;;;19.48;2.40;;;16.00;99.90;;;;;;4784095;29;20062;-87
2022/09/19 09:32:30;;;;;;;27.77;3.53;;;15.60;99.90;;;;;;4782694;29;20138;-87
2022/09/19 09:35:47;;;;;;;18.75;2.67;;;15.70;99.90;;;;;;4764566;30;20075;-86
2022/09/19 09:38:52;;;;;;;18.48;3.35;;;16.10;99.90;;;;;;4762945;30;20228;-88
2022/09/19 09:41:49;;;;;;;18.67;2.65;;;16.20;99.90;;;;;;4750045;30;20087;-88
2022/09/19 09:44:47;;;;;;;19.40;2.85;;;16.10;99.90;;;;;;4764090;30;20345;-86
2022/09/19 09:47:43;;;;;;;17.10;2.65;;;15.90;99.90;;;;;;4759761;30;20429;-89
2022/09/19 09:51:12;;;;;;;23.95;3.30;;;15.50;99.90;;;;;;4746540;30;20051;-88
2022/09/19 09:56:14;;;;;;;14.60;2.10;;;15.10;99.90;;;;;;4759840;30;20618;-88
2022/09/19 09:57:34;;;;;;;15.35;2.00;;;14.60;99.90;;;;;;4746164;30;20115;-87
2022/09/19 10:18:43;;;;;;;16.55;3.58;;;13.90;99.90;;;;;;4830471;24;20324;-88
2022/09/19 10:24:42;;;;;;;9.57;2.13;;;14.10;99.90;;;;;;4780925;29;20095;-87
2022/09/19 10:28:10;;;;;;;21.52;2.65;;;14.30;99.90;;;;;;4782531;30;20134;-88
2022/09/19 10:31:44;;;;;;;;;;;;;;;;;;;;;
2022/09/19 10:42:50;;;;;;;;;;;;;;;;;;;;;
2022/09/19 10:46:06;;;;;;;8.27;1.10;;;15.40;99.90;;;;;;4740167;30;20071;-86
2022/09/19 10:52:30;;;;;;;6.93;1.30;;;15.30;99.90;;;;;;4740172;30;20106;-88
2022/09/19 10:55:50;;;;;;;14.90;2.33;;;15.30;99.90;;;;;;4699000;30;20064;-89
2022/09/19 11:02:04;;;;;;;;;;;14.90;99.90;;;;;;4727376;30;19960;-89
2022/09/19 11:15:33;;;;;;;21.65;2.70;;;14.90;99.90;;;;;;4760555;30;20060;-87
2022/09/19 11:18:35;;;;;;;17.48;2.38;;;15.00;99.90;;;;;;4740527;30;20146;-87
2022/09/19 11:21:30;;;;;;;18.88;2.33;;;15.20;99.90;;;;;;4764280;30;20120;-87
2022/09/19 11:24:57;;;;;;;14.80;2.13;;;15.40;99.90;;;;;;4776822;29;20067;-88
2022/09/19 11:31:30;;;;;;;14.77;2.75;;;15.70;99.90;;;;;;4755817;30;20044;-87
2022/09/19 11:34:28;;;;;;;14.55;2.13;;;16.10;99.90;;;;;;4763654;30;20051;-88
2022/09/19 11:37:25;;;;;;;18.38;2.35;;;15.90;99.90;;;;;;4764838;30;20087;-89
2022/09/19 11:40:23;;;;;;;18.25;2.33;;;16.00;99.90;;;;;;4764437;30;20051;-88
2022/09/19 11:46:41;;;;;;;15.05;2.35;;;15.90;99.90;;;;;;4738202;30;20087;-87
2022/09/19 11:49:18;;;;;;;12.00;2.25;;;15.70;99.90;;;;;;4764811;30;20182;-88
2022/09/19 11:52:11;;;;;;;19.48;2.92;;;15.70;99.90;;;;;;4762017;30;20067;-86
2022/09/19 11:54:55;;;;;;;17.85;2.55;;;15.80;99.90;;;;;;4763534;30;20135;-88
2022/09/19 11:57:44;;;;;;;13.15;2.22;;;15.80;99.90;;;;;;4767884;30;20058;-88
2022/09/19 12:00:21;;;;;;;17.35;2.20;;;15.70;99.90;;;;;;4780336;30;20096;-85
2022/09/19 12:02:58;;;;;;;13.38;1.77;;;15.50;99.90;;;;;;4781384;30;20158;-87
2022/09/19 12:05:42;;;;;;;15.45;2.38;;;15.50;99.90;;;;;;4781469;30;20047;-87
2022/09/19 12:08:39;;;;;;;13.50;2.05;;;15.60;99.90;;;;;;4780714;30;20411;-88
2022/09/19 12:11:27;;;;;;;19.17;2.42;;;15.60;99.90;;;;;;4781451;30;20051;-88
2022/09/19 12:14:10;;;;;;;16.58;2.35;;;15.90;99.90;;;;;;4780393;30;20841;-88
2022/09/19 12:17:28;;;;;;;;;;;16.10;99.90;;;;;;4782202;30;20062;-87
2022/09/19 12:20:03;;;;;;;18.45;2.67;;;16.10;99.90;;;;;;4779194;29;19930;-87
2022/09/19 12:22:33;;;;;;;14.40;2.20;;;16.20;99.90;;;;;;4780913;30;20047;-86
2022/09/19 12:25:18;;;;;;;19.30;2.58;;;16.00;99.90;;;;;;4780105;30;20484;-87
2022/09/19 12:27:57;;;;;;;20.35;2.15;;;15.90;99.90;;;;;;4780777;30;20059;-86
2022/09/19 12:30:23;;;;;;;17.05;2.25;;;15.90;99.90;;;;;;4778794;30;20237;-86
2022/09/19 12:33:06;;;;;;;18.52;2.28;;;16.00;99.90;;;;;;4780988;30;20120;-86
2022/09/19 12:35:41;;;;;;;16.38;2.15;;;16.00;99.90;;;;;;4780148;30;20047;-88
2022/09/19 12:38:25;;;;;;;18.40;2.50;;;16.10;99.90;;;;;;4780828;30;20051;-86
2022/09/19 12:41:20;;;;;;;28.05;2.72;;;16.20;99.90;;;;;;4780191;30;20051;-88
2022/09/19 12:43:57;;;;;;;18.92;2.47;;;16.20;99.90;;;;;;4779805;29;20057;-87
2022/09/19 12:46:33;;;;;;;17.23;2.72;;;16.20;99.90;;;;;;4780546;30;20141;-87
2022/09/19 12:49:08;;;;;;;14.15;1.95;;;16.10;99.90;;;;;;4779837;30;20200;-87
2022/09/19 12:51:47;;;;;;;13.38;2.20;;;16.00;99.90;;;;;;4781239;30;20066;-87
2022/09/19 12:54:24;;;;;;;12.52;2.20;;;15.90;99.90;;;;;;4780026;30;20055;-88
2022/09/19 12:57:16;;;;;;;11.55;1.55;;;15.90;99.90;;;;;;4779868;30;20111;-87
2022/09/19 12:59:46;;;;;;;14.00;2.22;;;16.00;99.90;;;;;;4780120;30;20074;-87
2022/09/19 13:05:50;;;;;;;18.27;1.77;;;16.30;99.90;;;;;;4779249;29;20498;-96
2022/09/19 13:09:03;;;;;;;20.45;2.67;;;16.60;99.90;;;;;;4819391;24;20131;-91
2022/09/19 13:13:00;;;;;;;13.27;2.22;;;16.40;99.90;;;;;;4787092;29;20057;-93
2022/09/19 13:15:32;;;;;;;14.48;2.10;;;16.20;99.90;;;;;;4795635;29;20086;-92
2022/09/19 13:25:07;;;;;;;14.77;1.98;;;15.50;99.90;;;;;;4807708;29;20054;-92
2022/09/19 13:28:00;;;;;;;;;;;;;;;;;;;;;
2022/09/19 13:31:39;;;;;;;14.02;2.10;;;15.10;99.90;;;;;;4786011;30;20520;-92
2022/09/19 13:35:00;;;;;;;10.65;1.25;;;15.20;99.90;;;;;;4770043;29;20059;-92
2022/09/19 13:49:11;;;;;;;8.82;1.50;;;15.60;99.90;;;;;;4765433;29;20073;-92
2022/09/19 13:52:03;;;;;;;10.45;1.70;;;15.50;99.90;;;;;;4794118;29;20055;-93
2022/09/19 13:55:21;;;;;;;11.50;1.48;;;15.50;99.90;;;;;;4775845;29;20094;-94
2022/09/19 13:58:07;;;;;;;14.98;1.80;;;15.40;99.90;;;;;;4797028;29;20058;-93
2022/09/19 14:00:59;;;;;;;14.32;2.45;;;15.20;99.90;;;;;;4777779;29;20577;-93
2022/09/19 14:03:53;;;;;;;13.13;1.77;;;15.00;99.90;;;;;;4807645;29;20054;-94
2022/09/19 14:06:41;;;;;;;16.42;2.33;;;14.80;99.90;;;;;;4793381;29;20047;-93
2022/09/19 14:09:40;;;;;;;11.32;1.90;;;14.70;99.90;;;;;;4777133;29;20063;-93
2022/09/19 14:13:24;;;;;;;13.93;2.25;;;14.60;99.90;;;;;;4779470;29;20051;-94
2022/09/19 14:16:47;;;;;;;17.35;1.85;;;14.60;99.90;;;;;;4792513;29;20066;-94
2022/09/19 14:20:05;;;;;;;14.60;2.05;;;14.50;99.90;;;;;;4776515;29;20074;-93
2022/09/19 14:22:39;;;;;;;15.93;2.78;;;14.20;99.90;;;;;;4777963;29;20043;-94
2022/09/19 14:25:28;;;;;;;13.40;2.17;;;14.40;99.90;;;;;;4792853;29;20051;-95
2022/09/19 14:27:59;;;;;;;16.17;2.63;;;14.70;99.90;;;;;;4771718;30;20270;-95
2022/09/19 14:30:40;;;;;;;16.35;2.28;;;14.70;99.90;;;;;;4772611;30;20051;-95
2022/09/19 14:37:06;;;;;;;9.63;1.90;;;14.90;99.90;;;;;;4759805;29;20400;-96
2022/09/19 14:43:39;;;;;;;13.82;1.50;;;14.80;99.90;;;;;;4753874;30;20150;-93
2022/09/19 14:50:14;;;;;;;14.63;1.90;;;14.80;99.90;;;;;;4771033;30;20051;-93
2022/09/19 14:53:02;;;;;;;11.93;1.88;;;14.60;99.90;;;;;;4788186;29;20433;-93
2022/09/19 14:55:46;;;;;;;12.38;1.83;;;15.10;99.90;;;;;;4773897;29;20047;-94
2022/09/19 14:58:25;;;;;;;11.65;1.50;;;15.20;99.90;;;;;;4772272;30;20480;-94
2022/09/19 15:01:18;;;;;;;13.32;1.80;;;15.20;99.90;;;;;;4787067;30;20062;-92
2022/09/19 15:04:06;;;;;;;11.02;1.52;;;15.20;99.90;;;;;;4771969;30;20603;-92
2022/09/19 15:07:03;;;;;;;17.67;2.35;;;15.30;99.90;;;;;;4772542;30;20142;-92
2022/09/19 15:09:36;;;;;;;12.40;1.58;;;15.20;99.90;;;;;;4771748;30;20055;-92
2022/09/19 15:16:10;;;;;;;10.82;1.83;;;15.00;99.90;;;;;;4770665;30;20493;-94
2022/09/19 15:18:41;;;;;;;18.27;2.70;;;15.00;99.90;;;;;;4823000;24;20058;-86
2022/09/19 15:21:13;;;;;;;13.63;2.28;;;15.00;99.90;;;;;;4789218;29;20141;-88
2022/09/19 15:23:42;;;;;;;15.35;1.83;;;15.00;99.90;;;;;;4802977;29;20500;-87
2022/09/19 15:26:14;;;;;;;16.42;2.58;;;15.00;99.90;;;;;;4804160;29;20415;-86
2022/09/19 15:28:40;;;;;;;14.77;1.90;;;15.10;99.90;;;;;;4788358;29;20057;-87
2022/09/19 15:31:21;;;;;;;20.98;2.53;;;15.20;99.90;;;;;;4819181;29;20326;-87
2022/09/19 15:33:50;;;;;;;14.55;2.50;;;15.20;99.90;;;;;;4789660;29;20583;-86
2022/09/19 15:36:22;;;;;;;15.48;1.98;;;15.20;99.90;;;;;;4787090;29;20102;-87
2022/09/19 15:38:54;;;;;;;14.18;2.03;;;15.10;99.90;;;;;;4788570;29;20518;-87
2022/09/19 15:41:22;;;;;;;18.92;2.40;;;15.10;99.90;;;;;;4787027;29;20046;-86
2022/09/19 15:43:49;;;;;;;19.67;2.40;;;15.10;99.90;;;;;;4802054;29;20042;-86
2022/09/19 15:46:24;;;;;;;14.80;1.95;;;15.10;99.90;;;;;;4804054;29;20054;-87
2022/09/19 15:48:56;;;;;;;11.38;1.70;;;15.20;99.90;;;;;;4804298;29;20058;-87
2022/09/19 15:51:32;;;;;;;13.93;1.80;;;15.10;99.90;;;;;;4803849;29;20050;-88
2022/09/19 15:53:59;;;;;;;12.90;1.70;;;15.10;99.90;;;;;;4804434;29;20050;-86
2022/09/19 15:56:27;;;;;;;11.43;1.50;;;15.00;99.90;;;;;;4804461;29;20050;-86
2022/09/19 15:58:58;;;;;;;11.23;1.75;;;15.00;99.90;;;;;;4789526;29;20046;-88
2022/09/19 16:01:31;;;;;;;13.27;1.30;;;14.90;99.90;;;;;;4804612;29;20054;-87
2022/09/19 16:04:09;;;;;;;9.07;1.42;;;14.80;99.90;;;;;;4803463;29;20474;-87
2022/09/19 16:09:37;;;;;;;14.02;1.73;;;14.80;99.90;;;;;;4803730;29;20058;-86
2022/09/19 16:12:24;;;;;;;9.73;1.50;;;14.80;99.90;;;;;;4804738;29;20153;-85
2022/09/19 16:14:56;;;;;;;13.00;1.60;;;14.80;99.90;;;;;;4803661;29;20079;-87
2022/09/19 16:17:25;;;;;;;8.45;1.48;;;14.80;99.90;;;;;;4802502;29;20062;-87
2022/09/19 16:19:54;;;;;;;11.48;1.63;;;14.80;99.90;;;;;;4788939;29;20479;-87
2022/09/19 16:22:22;;;;;;;13.77;1.70;;;14.80;99.90;;;;;;4804759;29;20050;-87
2022/09/19 16:24:52;;;;;;;11.95;2.13;;;14.80;99.90;;;;;;4803788;29;20057;-85
2022/09/19 16:27:25;;;;;;;17.90;1.60;;;14.90;99.90;;;;;;4804635;29;20050;-86
2022/09/19 16:29:54;;;;;;;20.13;2.25;;;14.90;99.90;;;;;;4789133;29;20064;-86
2022/09/19 16:32:21;;;;;;;15.40;2.00;;;15.10;99.90;;;;;;4789838;29;20419;-90
2022/09/19 16:34:53;;;;;;;17.88;1.90;;;15.10;99.90;;;;;;4787758;29;20046;-86
2022/09/19 16:37:22;;;;;;;11.55;1.70;;;15.10;99.90;;;;;;4788366;29;20062;-86
2022/09/19 16:39:50;;;;;;;11.23;1.42;;;15.00;99.90;;;;;;4802601;29;20106;-87
2022/09/19 16:42:15;;;;;;;11.38;1.85;;;14.90;99.90;;;;;;4788346;29;20054;-86
2022/09/19 16:44:50;;;;;;;13.82;2.60;;;14.50;99.90;;;;;;4802958;29;20061;-87
2022/09/19 16:47:20;;;;;;;14.02;1.73;;;14.20;99.90;;;;;;4799979;29;20050;-87
2022/09/19 16:49:48;;;;;;;14.25;1.50;;;13.90;99.90;;;;;;4785492;29;20425;-87
2022/09/19 16:52:20;;;;;;;13.30;1.85;;;13.70;99.90;;;;;;4785834;29;20393;-87
2022/09/19 16:54:47;;;;;;;11.85;2.03;;;13.50;99.90;;;;;;4784567;29;20058;-87
2022/09/19 16:57:18;;;;;;;13.35;2.15;;;13.30;99.90;;;;;;4785313;29;20051;-87
2022/09/19 16:59:46;;;;;;;13.93;2.10;;;13.20;99.90;;;;;;4785719;29;20055;-87
2022/09/19 17:02:21;;;;;;;12.75;2.17;;;13.10;99.90;;;;;;4794289;29;20122;-87
2022/09/19 17:04:48;;;;;;;11.15;1.60;;;13.10;99.90;;;;;;4807185;29;20489;-87
2022/09/19 17:07:14;;;;;;;15.32;2.15;;;13.00;99.90;;;;;;4785198;29;20580;-87
2022/09/19 17:09:40;;;;;;;15.40;2.55;;;13.00;99.90;;;;;;4786735;29;20047;-87
2022/09/19 17:12:10;;;;;;;10.93;1.45;;;13.10;99.90;;;;;;4793097;29;20051;-87
2022/09/19 17:14:36;;;;;;;14.57;1.63;;;13.00;99.90;;;;;;4795073;29;20046;-86
2022/09/19 17:17:02;;;;;;;14.93;1.95;;;13.00;99.90;;;;;;4783017;29;20578;-86
2022/09/19 17:19:53;;;;;;;14.27;2.05;;;12.90;99.90;;;;;;4816955;29;20507;-87
2022/09/19 17:22:19;;;;;;;13.02;1.77;;;12.90;99.90;;;;;;4787129;29;20058;-86
2022/09/19 17:24:52;;;;;;;10.82;1.60;;;12.80;99.90;;;;;;4793831;29;20050;-87
2022/09/19 17:27:18;;;;;;;13.43;1.92;;;12.70;99.90;;;;;;4806604;29;20452;-87
2022/09/19 17:29:44;;;;;;;17.63;2.80;;;12.70;99.90;;;;;;4803282;29;20057;-87
2022/09/19 17:32:15;;;;;;;14.35;2.17;;;12.70;99.90;;;;;;4792859;29;20062;-90
2022/09/19 17:34:51;;;;;;;14.20;1.90;;;12.60;99.90;;;;;;4807948;29;20046;-91
2022/09/19 17:37:17;;;;;;;12.77;1.77;;;12.60;99.90;;;;;;4822474;29;20070;-89
2022/09/19 17:39:43;;;;;;;10.98;1.50;;;12.50;99.90;;;;;;4792079;29;20046;-89
2022/09/19 17:42:13;;;;;;;15.27;2.20;;;12.50;99.90;;;;;;4792369;29;20065;-87
2022/09/19 17:44:40;;;;;;;12.07;1.70;;;12.40;99.90;;;;;;4806142;29;20397;-87
2022/09/19 17:47:06;;;;;;;12.18;2.08;;;12.40;99.90;;;;;;4807426;29;20051;-88
2022/09/19 17:49:32;;;;;;;9.27;1.98;;;12.30;99.90;;;;;;4807110;29;20130;-88
2022/09/19 17:51:57;;;;;;;11.68;2.42;;;12.30;99.90;;;;;;4791927;29;20132;-88
2022/09/19 17:54:23;;;;;;;10.85;1.70;;;12.30;99.90;;;;;;4791268;29;20092;-87
2022/09/19 17:56:53;;;;;;;8.73;1.77;;;12.20;99.90;;;;;;4806941;29;20073;-88
2022/09/19 17:59:20;;;;;;;18.98;2.33;;;12.20;99.90;;;;;;4802534;29;20087;-86
2022/09/19 18:04:33;;;;;;;11.18;1.42;;;12.10;99.90;;;;;;4790954;29;20526;-86
2022/09/19 18:07:05;;;;;;;10.77;1.75;;;12.10;99.90;;;;;;4783043;29;20376;-86
2022/09/19 18:09:35;;;;;;;13.43;1.60;;;12.00;99.90;;;;;;4794274;29;20053;-86
2022/09/19 18:12:04;;;;;;;12.10;1.30;;;12.00;99.90;;;;;;4793043;29;20507;-87
2022/09/19 18:14:34;;;;;;;13.50;1.83;;;12.00;99.90;;;;;;4794981;29;20236;-87
2022/09/19 18:17:04;;;;;;;11.18;2.03;;;11.90;99.90;;;;;;4793625;29;20203;-89
2022/09/19 18:19:31;;;;;;;15.00;1.85;;;11.90;99.90;;;;;;4792085;29;20050;-87
2022/09/19 18:21:57;;;;;;;12.75;1.60;;;11.90;99.90;;;;;;4785536;29;20051;-87
2022/09/19 18:24:23;;;;;;;10.82;1.35;;;11.80;99.90;;;;;;4795745;29;20109;-86
2022/09/19 18:26:49;;;;;;;10.65;1.55;;;11.80;99.90;;;;;;4791784;29;20153;-86
2022/09/19 18:29:15;;;;;;;14.90;1.58;;;11.80;99.90;;;;;;4792973;29;20043;-86
2022/09/19 18:31:43;;;;;;;14.68;1.77;;;11.80;99.90;;;;;;4809737;29;20066;-86
2022/09/19 18:34:08;;;;;;;11.45;2.45;;;11.80;99.90;;;;;;4786680;29;20061;-88
2022/09/19 18:36:35;;;;;;;10.20;1.40;;;11.70;99.90;;;;;;4791116;29;20050;-86
2022/09/19 18:39:00;;;;;;;16.83;1.80;;;11.70;99.90;;;;;;4792992;29;20077;-86
2022/09/19 18:41:27;;;;;;;11.75;1.52;;;11.70;99.90;;;;;;4778029;29;20050;-86
2022/09/19 18:43:54;;;;;;;8.40;1.60;;;11.60;99.90;;;;;;4794422;29;20102;-87
2022/09/19 18:46:22;;;;;;;14.30;1.88;;;11.60;99.90;;;;;;4787516;29;20062;-87
2022/09/19 18:48:50;;;;;;;21.73;1.75;;;11.60;99.90;;;;;;4802095;29;20054;-87
2022/09/19 18:51:21;;;;;;;17.33;1.92;;;11.50;99.90;;;;;;4792858;29;20070;-87
2022/09/19 18:53:49;;;;;;;20.38;2.33;;;11.50;99.90;;;;;;4787964;29;20480;-87
2022/09/19 18:56:16;;;;;;;13.48;1.88;;;11.40;99.90;;;;;;4785387;29;20062;-87
2022/09/19 18:58:44;;;;;;;9.18;1.40;;;11.40;99.90;;;;;;4786748;29;20051;-87
2022/09/19 19:01:12;;;;;;;7.75;1.40;;;11.30;99.90;;;;;;4792389;29;20042;-86
2022/09/19 19:03:43;;;;;;;12.52;1.40;;;11.30;99.90;;;;;;4792982;29;20042;-87
2022/09/19 19:06:12;;;;;;;11.90;1.95;;;11.30;99.90;;;;;;4793933;29;20051;-87
2022/09/19 19:08:42;;;;;;;17.10;1.77;;;11.30;99.90;;;;;;4783843;29;20117;-87
2022/09/19 19:11:12;;;;;;;10.27;1.35;;;11.30;99.90;;;;;;4788453;29;20134;-87
2022/09/19 19:13:40;;;;;;;13.27;1.75;;;11.30;99.90;;;;;;4800744;29;20103;-88
2022/09/19 19:16:10;;;;;;;11.95;1.60;;;11.30;99.90;;;;;;4798268;29;20788;-87
2022/09/19 19:18:39;;;;;;;12.80;1.50;;;11.30;99.90;;;;;;4797373;29;20492;-87
2022/09/19 19:21:08;;;;;;;20.80;1.83;;;11.30;99.90;;;;;;4795401;29;20055;-87
2022/09/19 19:23:36;;;;;;;11.20;1.15;;;11.30;99.90;;;;;;4786392;29;20106;-87